createdAt,value
2022-10-22T00:05:14.966Z,100.00
2022-10-22T00:10:39.467Z,100.00
2022-10-22T00:16:05.175Z,100.00
2022-10-22T00:21:29.431Z,100.00
2022-10-22T00:26:54.911Z,100.00
2022-10-22T00:32:20.043Z,100.00
2022-10-22T00:37:45.028Z,100.00
2022-10-22T00:43:12.713Z,100.00
2022-10-22T00:48:39.441Z,100.00
2022-10-22T00:54:09.936Z,100.00
2022-10-22T00:59:34.505Z,100.00
2022-10-22T01:05:00.551Z,100.00
2022-10-22T01:10:43.042Z,100.00
2022-10-22T01:16:12.902Z,100.00
2022-10-22T01:21:45.725Z,100.00
2022-10-22T01:27:25.561Z,100.00
2022-10-22T01:32:55.819Z,100.00
2022-10-22T01:38:24.664Z,100.00
2022-10-22T01:43:49.530Z,100.00
2022-10-22T01:49:26.035Z,100.00
2022-10-22T01:55:00.550Z,100.00
2022-10-22T02:00:29.696Z,100.00
2022-10-22T02:06:00.864Z,100.00
2022-10-22T02:11:25.585Z,100.00
2022-10-22T02:16:51.628Z,100.00
2022-10-22T02:22:17.741Z,100.00
2022-10-22T02:27:46.506Z,100.00
2022-10-22T02:33:14.425Z,100.00
2022-10-22T02:38:42.362Z,100.00
2022-10-22T02:44:10.607Z,100.00
2022-10-22T02:49:34.918Z,100.00
2022-10-22T02:55:00.887Z,100.00
2022-10-22T03:00:24.910Z,100.00
2022-10-22T03:05:48.891Z,100.00
2022-10-22T03:11:15.718Z,100.00
2022-10-22T03:16:40.272Z,100.00
2022-10-22T03:22:09.011Z,100.00
2022-10-22T03:27:36.613Z,100.00
2022-10-22T03:33:00.903Z,100.00
2022-10-22T03:38:25.144Z,100.00
2022-10-22T03:43:53.063Z,100.00
2022-10-22T03:49:17.064Z,100.00
2022-10-22T03:54:42.400Z,100.00
2022-10-22T04:00:10.120Z,100.00
2022-10-22T04:05:35.466Z,100.00
2022-10-22T04:10:59.810Z,100.00
2022-10-22T04:16:30.928Z,100.00
2022-10-22T04:21:55.179Z,100.00
2022-10-22T04:27:19.434Z,100.00
2022-10-22T04:32:45.605Z,100.00
2022-10-22T04:38:09.901Z,100.00
2022-10-22T04:43:33.902Z,100.00
2022-10-22T04:49:00.017Z,100.00
2022-10-22T04:54:28.969Z,100.00
2022-10-22T04:59:57.637Z,100.00
2022-10-22T05:05:24.070Z,100.00
2022-10-22T05:10:50.112Z,100.00
2022-10-22T05:16:15.128Z,100.00
2022-10-22T05:21:41.155Z,100.00
2022-10-22T05:27:05.612Z,100.00
2022-10-22T05:32:29.700Z,100.00
2022-10-22T05:43:21.769Z,100.00
2022-10-22T05:48:49.561Z,100.00
2022-10-22T05:54:18.697Z,100.00
2022-10-22T05:59:43.732Z,100.00
2022-10-22T06:05:08.470Z,100.00
2022-10-22T06:10:34.983Z,89.09
2022-10-22T06:16:01.566Z,78.65
2022-10-22T06:21:26.186Z,71.94
2022-10-22T06:26:52.618Z,70.29
2022-10-22T06:32:16.849Z,62.82
2022-10-22T06:37:42.276Z,60.86
2022-10-22T06:43:08.177Z,59.24
2022-10-22T06:48:33.441Z,61.27
2022-10-22T06:53:58.555Z,66.69
2022-10-22T06:59:25.076Z,71.75
2022-10-22T07:04:49.981Z,82.12
2022-10-22T07:10:14.012Z,90.48
2022-10-22T07:15:39.431Z,97.77
2022-10-22T07:21:08.503Z,100.00
2022-10-22T07:26:32.847Z,91.60
2022-10-22T07:31:58.044Z,89.14
2022-10-22T07:37:22.272Z,85.44
2022-10-22T07:42:46.644Z,71.75
2022-10-22T07:48:12.491Z,69.27
2022-10-22T07:53:37.038Z,69.81
2022-10-22T08:04:32.139Z,81.42
2022-10-22T08:09:56.546Z,79.61
2022-10-22T08:15:22.300Z,79.38
2022-10-22T08:20:47.875Z,80.35
2022-10-22T08:26:12.101Z,88.09
2022-10-22T08:31:36.645Z,86.19
2022-10-22T08:37:02.248Z,83.32
2022-10-22T08:43:01.401Z,79.26
2022-10-22T08:48:42.888Z,83.79
2022-10-22T08:54:20.225Z,89.47
2022-10-22T08:59:49.001Z,88.46
2022-10-22T09:05:24.716Z,88.04
2022-10-22T09:10:55.763Z,85.28
2022-10-22T09:16:23.667Z,84.92
2022-10-22T09:21:56.890Z,88.02
2022-10-22T09:27:27.272Z,85.18
2022-10-22T09:32:53.126Z,82.59
2022-10-22T09:38:23.004Z,72.74
2022-10-22T09:43:50.133Z,68.14
2022-10-22T09:49:19.442Z,71.79
2022-10-22T09:54:44.264Z,71.63
2022-10-22T10:00:12.567Z,74.95
2022-10-22T10:05:37.688Z,80.45
2022-10-22T10:11:11.867Z,81.07
2022-10-22T10:16:45.979Z,77.95
2022-10-22T10:22:22.052Z,77.94
2022-10-22T10:27:53.217Z,80.05
2022-10-22T10:33:29.307Z,75.83
2022-10-22T10:39:01.149Z,75.71
2022-10-22T10:44:48.602Z,79.32
2022-10-22T10:50:21.391Z,75.70
2022-10-22T10:55:57.863Z,79.44
2022-10-22T11:01:28.780Z,76.77
2022-10-22T11:07:11.001Z,77.47
2022-10-22T11:12:48.838Z,70.99
2022-10-22T11:18:21.280Z,71.25
2022-10-22T11:23:51.812Z,75.09
2022-10-22T11:29:23.252Z,69.87
2022-10-22T11:34:51.957Z,69.41
2022-10-22T11:40:21.442Z,70.86
2022-10-22T11:45:51.566Z,71.89
2022-10-22T11:51:32.937Z,74.29
2022-10-22T11:57:19.414Z,74.34
2022-10-22T12:02:46.024Z,74.92
2022-10-22T12:08:24.749Z,74.22
2022-10-22T12:14:04.172Z,75.85
2022-10-22T12:19:31.379Z,77.98
2022-10-22T12:24:58.198Z,80.09
2022-10-22T12:30:27.040Z,78.94
2022-10-22T12:35:57.465Z,77.45
2022-10-22T12:41:22.598Z,74.96
2022-10-22T12:46:53.050Z,77.24
2022-10-22T12:52:25.831Z,77.29
2022-10-22T12:57:50.772Z,78.75
2022-10-22T13:03:28.694Z,81.11
2022-10-22T13:09:08.129Z,81.19
2022-10-22T13:14:35.367Z,80.58
2022-10-22T13:20:05.877Z,82.46
2022-10-22T13:25:32.890Z,83.32
2022-10-22T13:31:01.373Z,83.26
2022-10-22T13:36:27.350Z,83.12
2022-10-22T13:41:52.502Z,82.04
2022-10-22T13:47:26.565Z,83.47
2022-10-22T13:52:54.331Z,83.98
2022-10-22T13:58:21.788Z,83.16
2022-10-22T14:03:47.638Z,83.79
2022-10-22T14:09:17.601Z,84.76
2022-10-22T14:14:42.786Z,85.25
2022-10-22T14:20:19.231Z,86.79
2022-10-22T14:25:44.342Z,89.24
2022-10-22T14:31:11.325Z,91.52
2022-10-22T14:36:36.221Z,93.11
2022-10-22T14:42:02.950Z,93.77
2022-10-22T14:47:32.103Z,94.93
2022-10-22T14:53:01.597Z,96.39
2022-10-22T14:58:27.061Z,97.54
2022-10-22T15:03:56.352Z,98.77
2022-10-22T15:09:22.661Z,100.00
2022-10-22T15:14:47.860Z,100.00
2022-10-22T15:20:12.369Z,100.00
2022-10-22T15:25:37.062Z,100.00
2022-10-22T15:31:08.575Z,100.00
2022-10-22T15:36:32.035Z,100.00
2022-10-22T15:42:01.431Z,100.00
2022-10-22T15:47:29.677Z,100.00
2022-10-22T15:52:58.521Z,100.00
2022-10-22T15:58:22.231Z,99.65
2022-10-22T16:03:47.259Z,99.00
2022-10-22T16:09:13.012Z,98.37
2022-10-22T16:14:37.392Z,98.28
2022-10-22T16:20:08.737Z,98.36
2022-10-22T16:25:39.640Z,97.84
2022-10-22T16:31:06.163Z,97.04
2022-10-22T16:36:37.193Z,96.89
2022-10-22T16:42:00.526Z,96.33
2022-10-22T16:47:24.256Z,96.07
2022-10-22T16:52:50.829Z,95.85
2022-10-22T16:58:19.482Z,95.76
2022-10-22T17:03:48.736Z,95.89
2022-10-22T17:09:18.670Z,95.72
2022-10-22T17:14:44.259Z,97.19
2022-10-22T17:20:09.143Z,95.73
2022-10-22T17:25:39.512Z,96.04
2022-10-22T17:31:05.260Z,95.97
2022-10-22T17:36:33.396Z,96.40
2022-10-22T17:42:06.807Z,96.86
2022-10-22T17:47:30.518Z,96.68
2022-10-22T17:52:55.425Z,96.93
2022-10-22T17:58:20.638Z,97.52
2022-10-22T18:03:47.020Z,98.97
2022-10-22T18:09:17.279Z,99.68
2022-10-22T18:14:43.896Z,100.00
2022-10-22T18:20:09.648Z,100.00
2022-10-22T18:25:40.081Z,100.00
2022-10-22T18:31:08.843Z,100.00
2022-10-22T18:36:38.574Z,100.00
2022-10-22T18:42:06.290Z,100.00
2022-10-22T18:47:31.172Z,100.00
2022-10-22T18:52:54.765Z,100.00
2022-10-22T18:58:18.710Z,100.00
2022-10-22T19:03:44.334Z,100.00
2022-10-22T19:09:09.098Z,100.00
2022-10-22T19:14:38.555Z,100.00
2022-10-22T19:20:05.157Z,100.00
2022-10-22T19:25:35.279Z,100.00
2022-10-22T19:31:06.471Z,100.00
2022-10-22T19:36:37.379Z,100.00
2022-10-22T19:42:06.544Z,100.00
2022-10-22T19:47:35.761Z,100.00
2022-10-22T19:53:05.456Z,100.00
2022-10-22T19:58:34.856Z,100.00
2022-10-22T20:04:03.482Z,100.00
2022-10-22T20:09:34.236Z,100.00
2022-10-22T20:15:03.089Z,100.00
2022-10-22T20:20:32.497Z,100.00
2022-10-22T20:26:02.982Z,100.00
2022-10-22T20:31:36.102Z,100.00
2022-10-22T20:37:05.645Z,100.00
2022-10-22T20:42:36.356Z,100.00
2022-10-22T20:48:06.368Z,100.00
2022-10-22T20:53:35.493Z,100.00
2022-10-22T20:59:08.239Z,100.00
2022-10-22T21:04:37.454Z,100.00
2022-10-22T21:10:08.147Z,100.00
2022-10-22T21:15:38.535Z,100.00
2022-10-22T21:21:08.425Z,100.00
2022-10-22T21:26:38.523Z,100.00
2022-10-22T21:32:09.380Z,100.00
2022-10-22T21:37:38.615Z,100.00
2022-10-22T21:43:07.380Z,100.00
2022-10-22T21:48:40.421Z,100.00
2022-10-22T21:54:09.109Z,100.00
2022-10-22T21:59:38.599Z,100.00
2022-10-22T22:05:08.996Z,100.00
2022-10-22T22:10:38.482Z,100.00
2022-10-22T22:16:10.049Z,100.00
2022-10-22T22:21:41.625Z,100.00
2022-10-22T22:27:10.352Z,100.00
2022-10-22T22:32:39.587Z,100.00
2022-10-22T22:38:09.835Z,100.00
2022-10-22T22:43:38.714Z,100.00
2022-10-22T22:49:07.885Z,100.00
2022-10-22T22:54:38.704Z,100.00
2022-10-22T23:00:08.718Z,100.00
2022-10-22T23:05:37.852Z,100.00
2022-10-22T23:11:10.169Z,100.00
2022-10-22T23:16:43.526Z,100.00
2022-10-22T23:22:12.495Z,100.00
2022-10-22T23:27:42.932Z,100.00
2022-10-22T23:33:12.975Z,100.00
2022-10-22T23:38:43.017Z,100.00
2022-10-22T23:44:14.221Z,100.00
2022-10-22T23:49:43.578Z,100.00
2022-10-22T23:55:12.633Z,100.00
